Flight Track Log - Related Links

Times and Time Zones

All times are in EDT time to prevent confusion due to time zone crossing. See the GJS6221 flight status page for this flight to view local times or setup timezone preferences in your user account.

Time Position Orientation Groundspeed Altitude Reporting Facility
EDT Latitude Longitude Course Direction KTS MPH feet Rate Location/Type
Fri 07:21:39 AM 45.4894 -73.7278 203° Southwest 462 532 1,500  Level Boston Center
Fri 07:22:04 AM 45.5000 -73.7000 62° Northeast 160 184 2,800 2,259 Climbing Montreal Center
Fri 07:23:04 AM 45.5333 -73.6167 60° Northeast 220 253 4,700 2,050 Climbing Montreal Center
Fri 07:24:04 AM 45.5500 -73.5333 74° East 270 311 6,900 1,750 Climbing Montreal Center
Fri 07:25:04 AM 45.5500 -73.4000 90° East 270 311 8,200 1,900 Climbing Montreal Center
Fri 07:26:00 AM 44.9189 -74.0155 199° South  Level FlightAware Approximate
Fri 07:26:04 AM 45.4833 -73.3833 170° South 300 345 10,700  Level Montreal Center
Fri 07:27:00 AM 44.8287 -74.0681 203° Southwest  Level FlightAware Approximate
Fri 07:27:04 AM 45.4167 -73.4667 221° Southwest 320 368 13,500  Level Montreal Center
Fri 07:28:04 AM 45.3500 -73.5333 215° Southwest 340 391 14,900 1,650 Climbing Montreal Center
Fri 07:29:04 AM 45.2333 -73.5667 191° South 380 437 16,800 1,800 Climbing Montreal Center
Fri 07:30:04 AM 45.1333 -73.5667 180° South 400 460 18,500 1,750 Climbing Montreal Center
Fri 07:31:04 AM 45.0167 -73.6000 191° South 410 472 20,300 1,700 Climbing Montreal Center
Fri 07:32:04 AM 44.9000 -73.6000 180° South 420 483 21,900 1,705 Climbing Montreal Center
Fri 07:32:39 AM 44.8344 -73.6225 194° South 429 494 23,000 1,768 Climbing Boston Center
Fri 07:33:39 AM 44.7136 -73.6319 183° South 435 501 24,700 1,700 Climbing Boston Center
Fri 07:34:39 AM 44.5947 -73.6442 184° South 435 501 26,400 1,650 Climbing Boston Center
Fri 07:35:39 AM 44.4778 -73.6533 183° South 435 501 28,000 800 Climbing Boston Center
Fri 07:36:39 AM 44.3631 -73.6656 184° South 419 482 28,000 -50 Level Boston Center
Fri 07:37:39 AM 44.2464 -73.6717 182° South 424 488 27,900 -550 Descending Boston Center
Fri 07:38:39 AM 44.1419 -73.6842 185° South 424 488 26,900 -950 Descending Boston Center
Fri 07:39:39 AM 44.0211 -73.6961 184° South 430 495 26,000 -450 Descending Boston Center
Fri 07:40:39 AM 43.9044 -73.7050 183° South 430 495 26,000  Level Boston Center
Fri 07:41:39 AM 43.7853 -73.7169 184° South 435 501 26,000  Level Boston Center
Fri 07:42:39 AM 43.6539 -73.7256 183° South 435 501 26,000  Level Boston Center
Fri 07:43:39 AM 43.5372 -73.7347 183° South 430 495 26,000 -600 Level Boston Center
Fri 07:44:39 AM 43.4183 -73.7464 184° South 430 495 24,800 -1,300 Descending Boston Center
Fri 07:45:39 AM 43.3097 -73.7556 184° South 430 495 23,400 -1,400 Descending Boston Center
Fri 07:46:39 AM 43.1931 -73.7672 184° South 430 495 22,000 -700 Descending Boston Center
Fri 07:47:39 AM 43.0803 -73.7789 184° South 418 481 22,000  Level Boston Center
Fri 07:48:39 AM 42.9675 -73.7878 183° South 418 481 22,000  Level Boston Center
Fri 07:49:39 AM 42.8528 -73.7967 183° South 418 481 22,000 -250 Level Boston Center
Fri 07:50:39 AM 42.7361 -73.8025 182° South 418 481 21,500 -700 Descending Boston Center
Fri 07:51:39 AM 42.6175 -73.7831 173° South 418 481 20,600 -950 Descending Boston Center
Fri 07:52:39 AM 42.5011 -73.7553 170° South 411 473 19,600 -800 Descending Boston Center
Fri 07:53:39 AM 42.3928 -73.7614 182° South 397 457 19,000 -300 Descending Boston Center
Fri 07:54:39 AM 42.2925 -73.7733 185° South 397 457 19,000  Level Boston Center
Fri 07:55:39 AM 42.1714 -73.7875 185° South 402 463 19,000  Level Boston Center
Fri 07:56:39 AM 42.0692 -73.7992 185° South 412 474 19,000  Level Boston Center
Fri 07:57:39 AM 41.9503 -73.8164 186° South 407 468 19,000 -550 Level Boston Center
Fri 07:58:39 AM 41.8519 -73.8308 186° South 407 468 17,900 -1,650 Descending Boston Center
Fri 07:59:39 AM 41.7331 -73.8450 185° South 407 468 15,700 -2,050 Descending Boston Center
Fri 08:00:39 AM 41.6328 -73.8594 186° South 402 463 13,800 -1,786 Descending Boston Center
Fri 08:01:50 AM 41.5000 -73.8667 182° South 363 418 11,800 -1,603 Descending New York TRACON
Fri 08:02:50 AM 41.4167 -73.8667 180° South 317 365 10,300 -1,579 Descending New York TRACON
Fri 08:03:44 AM 41.3500 -73.8000 143° Southeast 293 337 8,800 -1,150 Descending New York TRACON
Fri 08:04:50 AM 41.2833 -73.7333 143° Southeast 293 337 8,000 -1,000 Descending New York TRACON
Fri 08:05:50 AM 41.2000 -73.7000 163° South 302 348 6,700 -1,421 Descending New York TRACON
Fri 08:06:44 AM 41.1333 -73.6667 159° South 298 343 5,300 -1,368 Descending New York TRACON
Fri 08:07:44 AM 41.0500 -73.6500 171° South 290 334 4,100 -650 Descending New York TRACON
Fri 08:08:44 AM 40.9833 -73.6333 169° South 287 330 4,000 -50 Descending New York TRACON
Fri 08:09:44 AM 40.9000 -73.6167 171° South 285 328 4,000 -619 Level New York TRACON
Fri 08:10:50 AM 40.8167 -73.6000 171° South 275 316 2,700 -952 Descending New York TRACON
Fri 08:11:50 AM 40.7500 -73.6333 201° Southwest 269 310 2,000 -350 Descending New York TRACON
Fri 08:12:50 AM 40.7167 -73.7167 242° Southwest 233 268 2,000 -200 Level New York TRACON
Fri 08:13:50 AM 40.7333 -73.7833 288° West 175 201 1,600 -650 Descending New York TRACON
Fri 08:14:50 AM 40.7500 -73.8167 303° West 140 161 700 -900 Descending New York TRACON
Fri 08:16:00 AM 40.7667 -73.8667 180° South  Level FlightAware Approximate
Fri 08:23:00 AM 40.7772 -73.8726 180° South  Level Estimated
Fri 08:24:00 AM 40.7772 -73.8726 180° South  Level Estimated

Login

Don't have an account? Register now (free) for customized features, flight alerts, and more!